Stations météo

réclame
Mon MeteoGroup
Ell, Pays-Bas (6377): Température de l'air & dewpoint: 17.01.2019 08:00:00 - 23.01.2019 08:00:00 (CET)Ell, Pays-Bas (6377): Température de l'air 5cm: 17.01.2019 08:00:00 - 23.01.2019 08:00:00 (CET)Ell, Pays-Bas (6377): Vitesse du vent & gusts: 17.01.2019 08:00:00 - 23.01.2019 08:00:00 (CET)Ell, Pays-Bas (6377): Direction du vent: 17.01.2019 08:00:00 - 23.01.2019 08:00:00 (CET)Ell, Pays-Bas (6377): visibility: 17.01.2019 08:00:00 - 23.01.2019 08:00:00 (CET)Ell, Pays-Bas (6377): Quantités de précipitations: 17.01.2019 08:00:00 - 23.01.2019 08:00:00 (CET)
Date & Time tt [°C] td [°C] tt 5cm [°C] ff [km/h] ff [knt] fx [km/h] fx [knt] dd vv [km] rr [mm]
23.01.2019 08:00:00 -6,2 -6,8 -8,4 11 6 - - ENE 2,9 -
23.01.2019 07:00:00 -6,9 -7,6 -8,2 7 4 14 8 ENE 4,1 0,0
23.01.2019 06:00:00 -5,0 -6,0 -7,5 11 6 14 8 E 4,7 0,0
23.01.2019 05:00:00 -4,1 -5,0 -6,1 11 6 18 10 E 4,6 0,0
23.01.2019 04:00:00 -2,9 -4,4 -4,2 11 6 18 10 E 7 0,0
23.01.2019 03:00:00 -2,2 -3,6 -3,7 11 6 14 8 ESE 7 0,0
23.01.2019 02:00:00 -1,2 -3,0 -1,8 7 4 14 8 ESE 8 0,0
23.01.2019 01:00:00 -1,0 -2,9 -1,3 7 4 18 10 ESE 8 0,0
23.01.2019 00:00:00 -0,3 -3,4 -1,3 14 8 22 12 SSE 11 0,0
22.01.2019 23:00:00 -0,9 -2,8 -1,2 11 6 14 8 SSE 9 0,0
22.01.2019 22:00:00 -0,9 -2,6 -1,2 11 6 14 8 SSE 9 0,0
22.01.2019 21:00:00 -1,2 -2,3 -1,5 11 6 14 8 SSE 6 0,1
22.01.2019 20:00:00 -1,6 -2,0 -1,7 11 6 18 10 SSE 3,9 0,7
22.01.2019 19:00:00 -1,7 -2,2 -1,8 14 8 22 12 SSE 1,9 0,6
22.01.2019 18:00:00 -1,8 -2,3 -1,9 14 8 25 14 SSE 1,6 0,9
22.01.2019 17:00:00 -1,8 -2,3 -1,8 18 10 25 14 SSE 1,2 1,0
22.01.2019 16:00:00 -1,9 -2,4 -1,8 18 10 25 14 SSE 1,3 0,9
22.01.2019 15:00:00 -1,8 -2,4 -1,6 18 10 25 14 SSE 1,1 0,6
22.01.2019 14:00:00 -1,6 -3,1 -1,4 22 12 36 19 S 1,5 0,1
22.01.2019 13:00:00 -0,4 -5,2 -0,3 18 10 36 19 S 9 0,0
22.01.2019 12:00:00 -0,7 -5,5 -0,7 22 12 29 16 S 12 0,0
22.01.2019 11:00:00 -1,5 -6,0 -1,8 18 10 29 16 S 14 0,0
22.01.2019 10:00:00 -3,1 -5,7 -3,6 11 6 14 8 SSE 14 0,0
22.01.2019 09:00:00 -4,2 -6,8 -5,2 11 6 14 8 SE 15 0,0
22.01.2019 08:00:00 -5,2 -7,7 -7,4 7 4 11 6 SE 20 0,0
22.01.2019 07:00:00 -4,9 -7,1 -7,4 7 4 11 6 SE 15 0,0
22.01.2019 06:00:00 -4,7 -7,2 -6,1 11 6 14 8 SE 14 0,0
22.01.2019 05:00:00 -5,6 -7,8 -8,1 11 6 11 6 S 12 0,0
22.01.2019 04:00:00 -4,9 -6,9 -8,1 11 6 14 8 SSE 9 0,0
22.01.2019 03:00:00 -4,9 -6,4 -8,0 7 4 14 8 SSE 8 0,0
22.01.2019 02:00:00 -5,5 -6,9 -7,9 11 6 11 6 SSE 7 0,0
22.01.2019 01:00:00 -4,8 -6,2 -8,0 11 6 11 6 SSE 6 0,0
22.01.2019 00:00:00 -4,9 -6,2 -7,3 11 6 11 6 S 6 0,0
21.01.2019 23:00:00 -3,9 -5,6 -7,7 7 4 11 6 SSE 9 0,0
21.01.2019 22:00:00 -3,9 -5,3 -7,3 7 4 7 4 S 8 0,0
21.01.2019 21:00:00 -3,2 -5,3 -6,7 4 2 7 4 S 10 0,0
21.01.2019 20:00:00 -2,5 -4,5 -6,0 7 4 7 4 S 10 0,0
21.01.2019 19:00:00 -2,9 -4,4 -5,3 4 2 11 6 SSW 9 0,0
21.01.2019 18:00:00 -1,9 -3,7 -5,0 7 4 7 4 S 8 0,0
21.01.2019 17:00:00 0,2 -3,2 -1,8 7 4 11 6 SSE 12 0,0
21.01.2019 16:00:00 2,7 -4,5 3,0 4 2 11 6 SW 22 0,0
21.01.2019 15:00:00 2,4 -4,6 3,4 7 4 11 6 SSW 20 0,0
21.01.2019 14:00:00 2,0 -3,8 3,2 4 2 11 6 SSW 15 0,0
21.01.2019 13:00:00 0,4 -3,4 2,0 7 4 11 6 S 13 0,0
21.01.2019 12:00:00 -1,3 -3,9 0,4 4 2 7 4 S 10 0,0
21.01.2019 11:00:00 -3,0 -5,1 -2,0 4 2 7 4 SSW 9 0,0
21.01.2019 10:00:00 -5,1 -6,2 -4,9 4 2 7 4 S 8 0,0
21.01.2019 09:00:00 -7,6 -7,9 -9,5 4 2 7 4 NW 3,9 0,0
21.01.2019 08:00:00 -7,6 -8,6 -9,9 4 2 7 4 WNW 8 0,0
21.01.2019 07:00:00 -7,5 -8,3 -9,4 4 2 4 2 W 7 0,0
21.01.2019 06:00:00 -7,0 -7,2 -9,5 4 2 4 2 W 5 0,0
21.01.2019 05:00:00 -6,4 -6,5 -8,5 4 2 7 4 W 7 0,0
21.01.2019 04:00:00 -7,3 -8,1 -9,3 4 2 7 4 SE 9 0,0
21.01.2019 03:00:00 -5,6 -6,7 -9,0 7 4 7 4 N 10 0,0
21.01.2019 02:00:00 -5,6 -6,2 -8,6 0 0 4 2 N 8 0,0
21.01.2019 01:00:00 -6,0 -6,5 -7,9 4 2 4 2 NNW 9 0,0
21.01.2019 00:00:00 -4,2 -5,7 -6,8 4 2 7 4 NNW 16 0,0
20.01.2019 23:00:00 -3,2 -5,5 -5,8 7 4 11 6 NNW 17 0,0
20.01.2019 22:00:00 -3,6 -5,5 -6,1 4 2 7 4 N 17 0,0
20.01.2019 21:00:00 -2,9 -5,3 -6,4 4 2 11 6 N 17 0,0
20.01.2019 20:00:00 -3,1 -5,7 -6,6 4 2 7 4 NNW 19 0,0
20.01.2019 19:00:00 -1,2 -5,3 -5,6 4 2 11 6 ENE 20 0,0
20.01.2019 18:00:00 -1,6 -4,7 -4,9 7 4 11 6 NE 20 0,0
20.01.2019 17:00:00 -1,0 -4,6 -3,0 7 4 14 8 NE 18 0,0
20.01.2019 16:00:00 1,1 -4,6 0,8 11 6 18 10 NE 30 0,0
20.01.2019 15:00:00 1,7 -4,5 2,1 11 6 18 10 NE 23 0,0
20.01.2019 14:00:00 1,3 -4,6 2,6 7 4 18 10 ENE 14 0,0
20.01.2019 13:00:00 0,7 -4,4 1,8 11 6 14 8 E 27 0,0
20.01.2019 12:00:00 -0,1 -4,2 1,0 7 4 18 10 E 29 0,0
20.01.2019 11:00:00 -1,3 -5,6 -0,5 11 6 18 10 E 32 0,0
20.01.2019 10:00:00 -2,4 -5,8 -2,6 11 6 14 8 E 35 0,0
20.01.2019 09:00:00 -4,5 -7,1 -7,1 7 4 14 8 E 26 0,0
20.01.2019 08:00:00 -5,3 -7,6 -7,1 11 6 14 8 ENE 33 0,0
20.01.2019 07:00:00 -4,5 -6,9 -6,9 7 4 18 10 ENE 25 0,0
20.01.2019 06:00:00 -3,2 -6,1 -6,6 11 6 18 10 E 10 0,0
20.01.2019 05:00:00 -4,6 -6,2 -7,5 7 4 11 6 E 21 0,0
20.01.2019 04:00:00 -4,7 -6,2 -7,7 7 4 11 6 E 18 0,0
20.01.2019 03:00:00 -4,1 -5,9 -6,8 7 4 14 8 E 21 0,0
20.01.2019 02:00:00 -4,7 -6,3 -6,7 11 6 11 6 ENE 18 0,0
20.01.2019 01:00:00 -3,2 -5,6 -6,4 7 4 11 6 E 29 0,0
20.01.2019 00:00:00 -2,2 -5,1 -4,6 7 4 14 8 E 29 0,0
19.01.2019 23:00:00 -2,1 -4,7 -4,7 7 4 14 8 E 28 0,0
19.01.2019 22:00:00 -2,0 -4,7 -3,5 11 6 14 8 E 25 0,0
19.01.2019 21:00:00 -1,6 -4,4 -4,3 11 6 14 8 E 26 0,0
19.01.2019 20:00:00 -1,2 -4,5 -4,0 7 4 14 8 E 23 0,0
19.01.2019 19:00:00 -0,3 -4,4 -1,8 11 6 18 10 E 34 0,0
19.01.2019 18:00:00 0,3 -3,7 -1,2 11 6 18 10 E 12 0,0
19.01.2019 17:00:00 1,1 -3,3 0,2 14 8 25 14 E 33 0,0
19.01.2019 16:00:00 2,2 -2,5 2,1 14 8 25 14 E 26 0,0
19.01.2019 15:00:00 2,5 -2,0 2,6 14 8 25 14 E 29 0,0
19.01.2019 14:00:00 2,4 -2,2 2,3 14 8 25 14 ESE 32 0,0
19.01.2019 13:00:00 2,4 -1,8 3,6 11 6 18 10 ESE 22 0,0
19.01.2019 12:00:00 0,9 -2,3 1,0 14 8 22 12 ESE 17 0,0
19.01.2019 11:00:00 -0,3 -2,6 -0,5 11 6 18 10 ESE 15 0,0
19.01.2019 10:00:00 -1,1 -2,7 -1,8 7 4 14 8 E 10 0,0
19.01.2019 09:00:00 -2,8 -4,3 -4,0 7 4 14 8 E 12 0,0
19.01.2019 08:00:00 -3,0 -4,5 -5,3 7 4 11 6 E 11 0,0
19.01.2019 07:00:00 -2,6 -3,9 -3,9 7 4 11 6 ESE 13 0,0
19.01.2019 06:00:00 -2,6 -3,8 -3,8 7 4 14 8 ESE 13 0,0
19.01.2019 05:00:00 -3,1 -4,1 -5,4 7 4 11 6 E 11 0,0
19.01.2019 04:00:00 -2,6 -3,5 -4,8 7 4 11 6 ESE 15 0,0
19.01.2019 03:00:00 -3,2 -4,0 -4,6 7 4 7 4 ESE 10 0,0
19.01.2019 02:00:00 -2,2 -2,8 -4,2 4 2 7 4 E 10 0,0
19.01.2019 01:00:00 -2,3 -2,5 -4,4 4 2 7 4 E 7 0,0
19.01.2019 00:00:00 -2,4 -2,7 -3,8 4 2 4 2 NE 2,5 0,0
18.01.2019 23:00:00 -2,5 -2,7 -3,1 4 2 4 2 ENE 0,1 0,0
18.01.2019 22:00:00 -1,8 -1,8 -1,7 4 2 7 4 ENE 0,1 0,0
18.01.2019 21:00:00 -1,1 -1,1 -0,9 4 2 7 4 E 0,4 0,0
18.01.2019 20:00:00 -1,0 -1,0 -0,7 7 4 11 6 E 0,7 0,0
18.01.2019 19:00:00 -0,1 -0,1 0,0 4 2 11 6 E 0,4 0,0
18.01.2019 18:00:00 -0,2 -0,3 0,1 7 4 11 6 E 0,2 0,0
18.01.2019 17:00:00 0,4 0,1 0,2 7 4 7 4 NE 1,7 0,0
18.01.2019 16:00:00 0,6 0,6 0,5 4 2 7 4 E 2,6 0,0
18.01.2019 15:00:00 0,8 0,6 1,3 7 4 14 8 SW 3,1 0,0
18.01.2019 14:00:00 0,0 0,0 0,5 7 4 14 8 S 2,3 0,0
18.01.2019 13:00:00 -0,4 -0,4 0,3 7 4 11 6 S 0,9 0,0
18.01.2019 12:00:00 -0,8 -0,9 -0,4 7 4 11 6 S 0,2 0,0
18.01.2019 11:00:00 -1,4 -1,4 -1,0 7 4 14 8 S 0,1 0,0
18.01.2019 10:00:00 -2,1 -2,3 -2,0 11 6 14 8 S 0,1 0,0
18.01.2019 09:00:00 -2,6 -2,9 -3,2 11 6 14 8 SSW 0,1 0,0
18.01.2019 08:00:00 -4,4 -4,5 -6,1 4 2 7 4 SSW 0,1 0,0
18.01.2019 07:00:00 -2,8 -2,9 -5,2 4 2 7 4 SW 0,3 0,0
18.01.2019 06:00:00 -2,0 -2,3 -4,0 7 4 7 4 WSW 3,7 0,0
18.01.2019 05:00:00 -1,5 -1,7 -3,3 7 4 11 6 W 4,6 0,0
18.01.2019 04:00:00 -0,9 -1,2 -1,3 11 6 14 8 W 6 0,0
18.01.2019 03:00:00 0,0 -0,6 -0,5 14 8 18 10 W 9 0,0
18.01.2019 02:00:00 0,4 0,0 0,0 14 8 22 12 W 7 0,0
18.01.2019 01:00:00 0,3 -0,2 -0,3 11 6 22 12 W 11 0,0
18.01.2019 00:00:00 0,5 -0,2 0,1 14 8 25 14 W 24 0,2
17.01.2019 23:00:00 1,2 0,4 0,9 18 10 25 14 W 18 0,0
17.01.2019 22:00:00 1,1 0,1 0,6 14 8 29 16 W 17 0,0
17.01.2019 21:00:00 0,9 0,2 0,5 11 6 29 16 NW 16 0,0
17.01.2019 20:00:00 1,2 0,4 0,7 18 10 36 19 W 16 0,3
17.01.2019 19:00:00 2,0 1,1 1,9 22 12 36 19 W 10 0,3
17.01.2019 18:00:00 1,9 0,8 1,7 18 10 36 19 WSW 10 0,5
17.01.2019 17:00:00 2,4 0,7 2,4 25 14 40 21 W 7 0,1
17.01.2019 16:00:00 3,2 0,5 3,0 25 14 47 25 W 33 0,0
17.01.2019 15:00:00 3,3 2,0 3,3 22 12 40 21 W 32 0,2
17.01.2019 14:00:00 4,3 2,0 4,4 25 14 40 21 WNW 35 0,0
17.01.2019 13:00:00 4,5 3,1 4,6 22 12 36 19 W 27 0,0
17.01.2019 12:00:00 3,5 2,4 3,6 25 14 40 21 WNW 9 0,9
17.01.2019 11:00:00 4,2 3,5 4,3 14 8 40 21 WSW 8 1,9
17.01.2019 10:00:00 4,7 3,4 4,5 18 10 40 21 SW 8 1,6
17.01.2019 09:00:00 4,5 3,4 3,3 14 8 22 12 SSW 10 0,0
17.01.2019 08:00:00 4,5 3,2 3,8 14 8 29 16 SW 12 0,0

tt = Température de l'air
td = dewpoint
tt 5cm = Température de l'air 5cm
ff = Vitesse du vent
fx = gusts
dd = Direction du vent
vv = visibility
rr = Quantités de précipitations

stations d'obs. à proximité